PWSweather.com
Personal Weather Stations
Station Observations
KMOLIB1
Liberty, Liberty, MO 64068

LibertyLiberty, MO 64068

Lat: 39.24, Lon: -94.45

Elevation: 866

Station Type:

High Low Average
Temperature 72.0°F22.2°C 60.0°F15.6°C 66.2°F19.0°C
Dew Point 51.7°F10.9°C 38.6°F3.7°C 45.4°F7.4°C
Winds 12.0 mph 19.3 kmh Calm Calm 3.0 mph SSW4.8 kmh SSW
Wind Gusts 25.0 mph40.2 kmh -- 21.0 mph33.8 kmh
Humidity 51% 45% 47%
Pressure 210.16 in7116.8 mb 209.99 in7111.1 mb -
Precipitation 0.00 in0.0 mm - -
Hour Temp Dew Point Humidity Winds Wind Gusts Pressure Precip Precip Rate Daily Precip Total
12:00 AM 72.0°F22.2°C 49.4°F9.7°C 45% 7.0 mph SSE11.3 kmh SSE 7.0 mph11.3 kmh 210.12 in7115.5 mb 0.00 in0.0 mm 0.00 in0.0 mm 0.00 in0.0 mm
12:05 AM 72.0°F22.2°C 49.4°F9.7°C 45% 5.0 mph SSW8.0 kmh SSW 14.0 mph22.5 kmh 210.12 in7115.5 mb 0.00 in0.0 mm 0.00 in0.0 mm 0.00 in0.0 mm
12:10 AM 72.0°F22.2°C 49.4°F9.7°C 45% 6.0 mph SW9.7 kmh SW 14.0 mph22.5 kmh 210.12 in7115.5 mb 0.00 in0.0 mm 0.00 in0.0 mm 0.00 in0.0 mm
12:15 AM 73.0°F22.8°C 50.3°F10.2°C 45% 9.0 mph S14.5 kmh S 14.0 mph22.5 kmh 210.12 in7115.5 mb 0.00 in0.0 mm 0.00 in0.0 mm 0.00 in0.0 mm
12:20 AM 73.0°F22.8°C 50.3°F10.2°C 45% 7.0 mph SE11.3 kmh SE 14.0 mph22.5 kmh 210.12 in7115.5 mb 0.00 in0.0 mm 0.00 in0.0 mm 0.00 in0.0 mm
12:25 AM 73.0°F22.8°C 50.3°F10.2°C 45% 6.0 mph SSW9.7 kmh SSW 14.0 mph22.5 kmh 210.12 in7115.5 mb 0.00 in0.0 mm 0.00 in0.0 mm 0.00 in0.0 mm
12:30 AM 73.0°F22.8°C 50.3°F10.2°C 45% 10.0 mph SSE16.1 kmh SSE 14.0 mph22.5 kmh 210.12 in7115.5 mb 0.00 in0.0 mm 0.00 in0.0 mm 0.00 in0.0 mm
12:35 AM 73.0°F22.8°C 50.3°F10.2°C 45% 1.0 mph ESE1.6 kmh ESE 14.0 mph22.5 kmh 210.12 in7115.5 mb 0.00 in0.0 mm 0.00 in0.0 mm 0.00 in0.0 mm
12:40 AM 72.0°F22.2°C 49.4°F9.7°C 45% 9.0 mph SSW14.5 kmh SSW 14.0 mph22.5 kmh 210.12 in7115.5 mb 0.00 in0.0 mm 0.00 in0.0 mm 0.00 in0.0 mm
12:45 AM 72.0°F22.2°C 49.4°F9.7°C 45% 6.0 mph SSW9.7 kmh SSW 14.0 mph22.5 kmh 210.12 in7115.5 mb 0.00 in0.0 mm 0.00 in0.0 mm 0.00 in0.0 mm
12:50 AM 72.0°F22.2°C 49.4°F9.7°C 45% 6.0 mph SE9.7 kmh SE 14.0 mph22.5 kmh 210.12 in7115.5 mb 0.00 in0.0 mm 0.00 in0.0 mm 0.00 in0.0 mm
12:55 AM 72.0°F22.2°C 49.4°F9.7°C 45% 4.0 mph SSW6.4 kmh SSW 14.0 mph22.5 kmh 210.12 in7115.5 mb 0.00 in0.0 mm 0.00 in0.0 mm 0.00 in0.0 mm
01:00 AM 72.0°F22.2°C 49.4°F9.7°C 45% 10.0 mph SSW16.1 kmh SSW 14.0 mph22.5 kmh 210.12 in7115.5 mb 0.00 in0.0 mm 0.00 in0.0 mm 0.00 in0.0 mm
01:05 AM 72.0°F22.2°C 49.4°F9.7°C 45% 7.0 mph SSE11.3 kmh SSE 14.0 mph22.5 kmh 210.12 in7115.5 mb 0.00 in0.0 mm 0.00 in0.0 mm 0.00 in0.0 mm
01:10 AM 72.0°F22.2°C 49.4°F9.7°C 45% 10.0 mph SSW16.1 kmh SSW 15.0 mph24.1 kmh 210.12 in7115.5 mb 0.00 in0.0 mm 0.00 in0.0 mm 0.00 in0.0 mm
01:15 AM 72.0°F22.2°C 49.4°F9.7°C 45% 9.0 mph SSW14.5 kmh SSW 15.0 mph24.1 kmh 210.12 in7115.5 mb 0.00 in0.0 mm 0.00 in0.0 mm 0.00 in0.0 mm
01:20 AM 72.0°F22.2°C 49.4°F9.7°C 45% 2.0 mph S3.2 kmh S 15.0 mph24.1 kmh 210.12 in7115.5 mb 0.00 in0.0 mm 0.00 in0.0 mm 0.00 in0.0 mm
01:25 AM 72.0°F22.2°C 49.4°F9.7°C 45% 4.0 mph E6.4 kmh E 15.0 mph24.1 kmh 210.12 in7115.5 mb 0.00 in0.0 mm 0.00 in0.0 mm 0.00 in0.0 mm
01:30 AM 72.0°F22.2°C 49.4°F9.7°C 45% 6.0 mph S9.7 kmh S 15.0 mph24.1 kmh 210.12 in7115.5 mb 0.00 in0.0 mm 0.00 in0.0 mm 0.00 in0.0 mm
01:35 AM 71.0°F21.7°C 48.5°F9.2°C 45% 3.0 mph S4.8 kmh S 15.0 mph24.1 kmh 210.12 in7115.5 mb 0.00 in0.0 mm 0.00 in0.0 mm 0.00 in0.0 mm
01:40 AM 71.0°F21.7°C 48.5°F9.2°C 45% 6.0 mph WSW9.7 kmh WSW 15.0 mph24.1 kmh 210.11 in7115.1 mb 0.00 in0.0 mm 0.00 in0.0 mm 0.00 in0.0 mm
01:45 AM 71.0°F21.7°C 48.5°F9.2°C 45% 6.0 mph SE9.7 kmh SE 15.0 mph24.1 kmh 210.11 in7115.1 mb 0.00 in0.0 mm 0.00 in0.0 mm 0.00 in0.0 mm
01:50 AM 71.0°F21.7°C 48.5°F9.2°C 45% 3.0 mph SW4.8 kmh SW 15.0 mph24.1 kmh 210.11 in7115.1 mb 0.00 in0.0 mm 0.00 in0.0 mm 0.00 in0.0 mm
01:55 AM 71.0°F21.7°C 48.5°F9.2°C 45% 7.0 mph SSE11.3 kmh SSE 15.0 mph24.1 kmh 210.11 in7115.1 mb 0.00 in0.0 mm 0.00 in0.0 mm 0.00 in0.0 mm
02:00 AM 71.0°F21.7°C 48.5°F9.2°C 45% 4.0 mph SSW6.4 kmh SSW 15.0 mph24.1 kmh 210.10 in7114.8 mb 0.00 in0.0 mm 0.00 in0.0 mm 0.00 in0.0 mm
02:05 AM 71.0°F21.7°C 48.5°F9.2°C 45% 6.0 mph SSW9.7 kmh SSW 18.0 mph29.0 kmh 210.10 in7114.8 mb 0.00 in0.0 mm 0.00 in0.0 mm 0.00 in0.0 mm
02:10 AM 71.0°F21.7°C 48.5°F9.2°C 45% 8.0 mph SW12.9 kmh SW 18.0 mph29.0 kmh 210.11 in7115.1 mb 0.00 in0.0 mm 0.00 in0.0 mm 0.00 in0.0 mm
02:15 AM 71.0°F21.7°C 48.5°F9.2°C 45% 3.0 mph WSW4.8 kmh WSW 18.0 mph29.0 kmh 210.11 in7115.1 mb 0.00 in0.0 mm 0.00 in0.0 mm 0.00 in0.0 mm
02:20 AM 71.0°F21.7°C 48.5°F9.2°C 45% 8.0 mph SW12.9 kmh SW 18.0 mph29.0 kmh 210.10 in7114.8 mb 0.00 in0.0 mm 0.00 in0.0 mm 0.00 in0.0 mm
02:25 AM 71.0°F21.7°C 48.5°F9.2°C 45% 10.0 mph SW16.1 kmh SW 18.0 mph29.0 kmh 210.10 in7114.8 mb 0.00 in0.0 mm 0.00 in0.0 mm 0.00 in0.0 mm
02:30 AM 71.0°F21.7°C 48.5°F9.2°C 45% 6.0 mph SE9.7 kmh SE 18.0 mph29.0 kmh 210.10 in7114.8 mb 0.00 in0.0 mm 0.00 in0.0 mm 0.00 in0.0 mm
02:35 AM 71.0°F21.7°C 48.5°F9.2°C 45% 6.0 mph S9.7 kmh S 18.0 mph29.0 kmh 210.10 in7114.8 mb 0.00 in0.0 mm 0.00 in0.0 mm 0.00 in0.0 mm
02:40 AM 71.0°F21.7°C 48.5°F9.2°C 45% 6.0 mph SW9.7 kmh SW 18.0 mph29.0 kmh 210.10 in7114.8 mb 0.00 in0.0 mm 0.00 in0.0 mm 0.00 in0.0 mm
02:45 AM 71.0°F21.7°C 48.5°F9.2°C 45% 7.0 mph S11.3 kmh S 19.0 mph30.6 kmh 210.10 in7114.8 mb 0.00 in0.0 mm 0.00 in0.0 mm 0.00 in0.0 mm
02:50 AM 71.0°F21.7°C 48.5°F9.2°C 45% 5.0 mph SW8.0 kmh SW 19.0 mph30.6 kmh 210.10 in7114.8 mb 0.00 in0.0 mm 0.00 in0.0 mm 0.00 in0.0 mm
02:55 AM 71.0°F21.7°C 48.5°F9.2°C 45% 9.0 mph S14.5 kmh S 20.0 mph32.2 kmh 210.10 in7114.8 mb 0.00 in0.0 mm 0.00 in0.0 mm 0.00 in0.0 mm
03:00 AM 71.0°F21.7°C 49.1°F9.5°C 46% 5.0 mph S8.0 kmh S 20.0 mph32.2 kmh 210.10 in7114.8 mb 0.00 in0.0 mm 0.00 in0.0 mm 0.00 in0.0 mm
03:05 AM 71.0°F21.7°C 49.1°F9.5°C 46% 5.0 mph SE8.0 kmh SE 20.0 mph32.2 kmh 210.10 in7114.8 mb 0.00 in0.0 mm 0.00 in0.0 mm 0.00 in0.0 mm
03:10 AM 71.0°F21.7°C 49.1°F9.5°C 46% 6.0 mph SSW9.7 kmh SSW 20.0 mph32.2 kmh 210.10 in7114.8 mb 0.00 in0.0 mm 0.00 in0.0 mm 0.00 in0.0 mm
03:15 AM 71.0°F21.7°C 49.1°F9.5°C 46% 7.0 mph WSW11.3 kmh WSW 20.0 mph32.2 kmh 210.10 in7114.8 mb 0.00 in0.0 mm 0.00 in0.0 mm 0.00 in0.0 mm
03:20 AM 71.0°F21.7°C 49.1°F9.5°C 46% 9.0 mph S14.5 kmh S 20.0 mph32.2 kmh 210.10 in7114.8 mb 0.00 in0.0 mm 0.00 in0.0 mm 0.00 in0.0 mm
03:25 AM 71.0°F21.7°C 49.1°F9.5°C 46% 4.0 mph S6.4 kmh S 20.0 mph32.2 kmh 210.10 in7114.8 mb 0.00 in0.0 mm 0.00 in0.0 mm 0.00 in0.0 mm
03:30 AM 71.0°F21.7°C 49.1°F9.5°C 46% 9.0 mph SE14.5 kmh SE 20.0 mph32.2 kmh 210.10 in7114.8 mb 0.00 in0.0 mm 0.00 in0.0 mm 0.00 in0.0 mm
03:35 AM 71.0°F21.7°C 49.1°F9.5°C 46% 3.0 mph SSE4.8 kmh SSE 20.0 mph32.2 kmh 210.10 in7114.8 mb 0.00 in0.0 mm 0.00 in0.0 mm 0.00 in0.0 mm
03:40 AM 71.0°F21.7°C 49.1°F9.5°C 46% 6.0 mph SSW9.7 kmh SSW 20.0 mph32.2 kmh 210.10 in7114.8 mb 0.00 in0.0 mm 0.00 in0.0 mm 0.00 in0.0 mm
03:45 AM 71.0°F21.7°C 49.1°F9.5°C 46% 5.0 mph S8.0 kmh S 20.0 mph32.2 kmh 210.10 in7114.8 mb 0.00 in0.0 mm 0.00 in0.0 mm 0.00 in0.0 mm
03:50 AM 71.0°F21.7°C 49.1°F9.5°C 46% 10.0 mph SSW16.1 kmh SSW 20.0 mph32.2 kmh 210.10 in7114.8 mb 0.00 in0.0 mm 0.00 in0.0 mm 0.00 in0.0 mm
03:55 AM 71.0°F21.7°C 49.1°F9.5°C 46% 4.0 mph SSW6.4 kmh SSW 20.0 mph32.2 kmh 210.10 in7114.8 mb 0.00 in0.0 mm 0.00 in0.0 mm 0.00 in0.0 mm
04:00 AM 71.0°F21.7°C 49.1°F9.5°C 46% 6.0 mph SW9.7 kmh SW 20.0 mph32.2 kmh 210.10 in7114.8 mb 0.00 in0.0 mm 0.00 in0.0 mm 0.00 in0.0 mm
04:05 AM 71.0°F21.7°C 49.1°F9.5°C 46% 5.0 mph SSE8.0 kmh SSE 20.0 mph32.2 kmh 210.10 in7114.8 mb 0.00 in0.0 mm 0.00 in0.0 mm 0.00 in0.0 mm
04:10 AM 71.0°F21.7°C 49.1°F9.5°C 46% 9.0 mph S14.5 kmh S 20.0 mph32.2 kmh 210.09 in7114.5 mb 0.00 in0.0 mm 0.00 in0.0 mm 0.00 in0.0 mm
04:15 AM 71.0°F21.7°C 49.1°F9.5°C 46% 10.0 mph SSE16.1 kmh SSE 20.0 mph32.2 kmh 210.09 in7114.5 mb 0.00 in0.0 mm 0.00 in0.0 mm 0.00 in0.0 mm
04:20 AM 71.0°F21.7°C 49.1°F9.5°C 46% 6.0 mph SSW9.7 kmh SSW 20.0 mph32.2 kmh 210.09 in7114.5 mb 0.00 in0.0 mm 0.00 in0.0 mm 0.00 in0.0 mm
04:25 AM 70.0°F21.1°C 48.2°F9.0°C 46% 7.0 mph SW11.3 kmh SW 20.0 mph32.2 kmh 210.09 in7114.5 mb 0.00 in0.0 mm 0.00 in0.0 mm 0.00 in0.0 mm
04:30 AM 70.0°F21.1°C 48.2°F9.0°C 46% 7.0 mph S11.3 kmh S 20.0 mph32.2 kmh 210.09 in7114.5 mb 0.00 in0.0 mm 0.00 in0.0 mm 0.00 in0.0 mm
04:35 AM 70.0°F21.1°C 48.2°F9.0°C 46% 6.0 mph SSE9.7 kmh SSE 20.0 mph32.2 kmh 210.09 in7114.5 mb 0.00 in0.0 mm 0.00 in0.0 mm 0.00 in0.0 mm
04:40 AM 70.0°F21.1°C 48.2°F9.0°C 46% 6.0 mph S9.7 kmh S 20.0 mph32.2 kmh 210.09 in7114.5 mb 0.00 in0.0 mm 0.00 in0.0 mm 0.00 in0.0 mm
04:45 AM 70.0°F21.1°C 48.2°F9.0°C 46% 2.0 mph SSE3.2 kmh SSE 20.0 mph32.2 kmh 210.09 in7114.5 mb 0.00 in0.0 mm 0.00 in0.0 mm 0.00 in0.0 mm
04:50 AM 70.0°F21.1°C 48.2°F9.0°C 46% 2.0 mph S3.2 kmh S 20.0 mph32.2 kmh 210.09 in7114.5 mb 0.00 in0.0 mm 0.00 in0.0 mm 0.00 in0.0 mm
04:55 AM 70.0°F21.1°C 48.2°F9.0°C 46% 7.0 mph SSE11.3 kmh SSE 20.0 mph32.2 kmh 210.09 in7114.5 mb 0.00 in0.0 mm 0.00 in0.0 mm 0.00 in0.0 mm
05:00 AM 70.0°F21.1°C 48.2°F9.0°C 46% 2.0 mph SSW3.2 kmh SSW 20.0 mph32.2 kmh 210.09 in7114.5 mb 0.00 in0.0 mm 0.00 in0.0 mm 0.00 in0.0 mm
05:05 AM 70.0°F21.1°C 48.2°F9.0°C 46% 2.0 mph SE3.2 kmh SE 20.0 mph32.2 kmh 210.09 in7114.5 mb 0.00 in0.0 mm 0.00 in0.0 mm 0.00 in0.0 mm
05:10 AM 70.0°F21.1°C 48.2°F9.0°C 46% 7.0 mph S11.3 kmh S 20.0 mph32.2 kmh 210.08 in7114.1 mb 0.00 in0.0 mm 0.00 in0.0 mm 0.00 in0.0 mm
05:15 AM 70.0°F21.1°C 48.2°F9.0°C 46% 7.0 mph SW11.3 kmh SW 20.0 mph32.2 kmh 210.08 in7114.1 mb 0.00 in0.0 mm 0.00 in0.0 mm 0.00 in0.0 mm
05:20 AM 70.0°F21.1°C 48.2°F9.0°C 46% 6.0 mph SSE9.7 kmh SSE 20.0 mph32.2 kmh 210.08 in7114.1 mb 0.00 in0.0 mm 0.00 in0.0 mm 0.00 in0.0 mm
05:25 AM 70.0°F21.1°C 48.2°F9.0°C 46% 7.0 mph SW11.3 kmh SW 20.0 mph32.2 kmh 210.08 in7114.1 mb 0.00 in0.0 mm 0.00 in0.0 mm 0.00 in0.0 mm
05:30 AM 70.0°F21.1°C 48.2°F9.0°C 46% 6.0 mph SSE9.7 kmh SSE 20.0 mph32.2 kmh 210.08 in7114.1 mb 0.00 in0.0 mm 0.00 in0.0 mm 0.00 in0.0 mm
05:35 AM 70.0°F21.1°C 48.2°F9.0°C 46% 7.0 mph SW11.3 kmh SW 20.0 mph32.2 kmh 210.08 in7114.1 mb 0.00 in0.0 mm 0.00 in0.0 mm 0.00 in0.0 mm
05:40 AM 70.0°F21.1°C 48.2°F9.0°C 46% 6.0 mph SSW9.7 kmh SSW 20.0 mph32.2 kmh 210.08 in7114.1 mb 0.00 in0.0 mm 0.00 in0.0 mm 0.00 in0.0 mm
05:45 AM 70.0°F21.1°C 48.2°F9.0°C 46% 4.0 mph S6.4 kmh S 20.0 mph32.2 kmh 210.08 in7114.1 mb 0.00 in0.0 mm 0.00 in0.0 mm 0.00 in0.0 mm
05:50 AM 70.0°F21.1°C 48.2°F9.0°C 46% 5.0 mph S8.0 kmh S 20.0 mph32.2 kmh 210.09 in7114.5 mb 0.00 in0.0 mm 0.00 in0.0 mm 0.00 in0.0 mm
05:55 AM 70.0°F21.1°C 48.2°F9.0°C 46% 10.0 mph SW16.1 kmh SW 20.0 mph32.2 kmh 210.09 in7114.5 mb 0.00 in0.0 mm 0.00 in0.0 mm 0.00 in0.0 mm
06:00 AM 70.0°F21.1°C 48.2°F9.0°C 46% 9.0 mph SSW14.5 kmh SSW 20.0 mph32.2 kmh 210.10 in7114.8 mb 0.00 in0.0 mm 0.00 in0.0 mm 0.00 in0.0 mm
06:05 AM 70.0°F21.1°C 48.2°F9.0°C 46% 4.0 mph S6.4 kmh S 20.0 mph32.2 kmh 210.10 in7114.8 mb 0.00 in0.0 mm 0.00 in0.0 mm 0.00 in0.0 mm
06:10 AM 70.0°F21.1°C 48.2°F9.0°C 46% 9.0 mph SW14.5 kmh SW 20.0 mph32.2 kmh 210.10 in7114.8 mb 0.00 in0.0 mm 0.00 in0.0 mm 0.00 in0.0 mm
06:15 AM 70.0°F21.1°C 48.2°F9.0°C 46% 2.0 mph WNW3.2 kmh WNW 20.0 mph32.2 kmh 210.10 in7114.8 mb 0.00 in0.0 mm 0.00 in0.0 mm 0.00 in0.0 mm
06:20 AM 70.0°F21.1°C 48.8°F9.3°C 47% 8.0 mph NW12.9 kmh NW 20.0 mph32.2 kmh 210.13 in7115.8 mb 0.00 in0.0 mm 0.00 in0.0 mm 0.00 in0.0 mm
06:25 AM 69.0°F20.6°C 48.4°F9.1°C 48% 3.0 mph N4.8 kmh N 20.0 mph32.2 kmh 210.13 in7115.8 mb 0.00 in0.0 mm 0.00 in0.0 mm 0.00 in0.0 mm
06:30 AM 68.0°F20.0°C 47.5°F8.6°C 48% 5.0 mph S8.0 kmh S 20.0 mph32.2 kmh 210.13 in7115.8 mb 0.00 in0.0 mm 0.00 in0.0 mm 0.00 in0.0 mm
06:35 AM 68.0°F20.0°C 47.5°F8.6°C 48% 5.0 mph SSW8.0 kmh SSW 20.0 mph32.2 kmh 210.13 in7115.8 mb 0.00 in0.0 mm 0.00 in0.0 mm 0.00 in0.0 mm
06:40 AM 68.0°F20.0°C 47.5°F8.6°C 48% Calm Calm 20.0 mph32.2 kmh 210.14 in7116.2 mb 0.00 in0.0 mm 0.00 in0.0 mm 0.00 in0.0 mm
06:45 AM 68.0°F20.0°C 48.1°F8.9°C 49% Calm Calm 20.0 mph32.2 kmh 210.14 in7116.2 mb 0.00 in0.0 mm 0.00 in0.0 mm 0.00 in0.0 mm
06:50 AM 68.0°F20.0°C 48.1°F8.9°C 49% Calm Calm 20.0 mph32.2 kmh 210.14 in7116.2 mb 0.00 in0.0 mm 0.00 in0.0 mm 0.00 in0.0 mm
06:55 AM 68.0°F20.0°C 48.1°F8.9°C 49% 1.0 mph S1.6 kmh S 20.0 mph32.2 kmh 210.14 in7116.2 mb 0.00 in0.0 mm 0.00 in0.0 mm 0.00 in0.0 mm
07:00 AM 68.0°F20.0°C 48.1°F8.9°C 49% 3.0 mph S4.8 kmh S 20.0 mph32.2 kmh 210.13 in7115.8 mb 0.00 in0.0 mm 0.00 in0.0 mm 0.00 in0.0 mm
07:05 AM 68.0°F20.0°C 48.1°F8.9°C 49% Calm Calm 20.0 mph32.2 kmh 210.13 in7115.8 mb 0.00 in0.0 mm 0.00 in0.0 mm 0.00 in0.0 mm
07:10 AM 68.0°F20.0°C 48.1°F8.9°C 49% Calm Calm 20.0 mph32.2 kmh 210.14 in7116.2 mb 0.00 in0.0 mm 0.00 in0.0 mm 0.00 in0.0 mm
07:15 AM 68.0°F20.0°C 48.1°F8.9°C 49% Calm Calm 20.0 mph32.2 kmh 210.14 in7116.2 mb 0.00 in0.0 mm 0.00 in0.0 mm 0.00 in0.0 mm
07:20 AM 68.0°F20.0°C 48.1°F8.9°C 49% Calm Calm 20.0 mph32.2 kmh 210.14 in7116.2 mb 0.00 in0.0 mm 0.00 in0.0 mm 0.00 in0.0 mm
07:25 AM 68.0°F20.0°C 48.1°F8.9°C 49% Calm Calm 20.0 mph32.2 kmh 210.14 in7116.2 mb 0.00 in0.0 mm 0.00 in0.0 mm 0.00 in0.0 mm
07:30 AM 68.0°F20.0°C 48.1°F8.9°C 49% 1.0 mph WNW1.6 kmh WNW 20.0 mph32.2 kmh 210.15 in7116.5 mb 0.00 in0.0 mm 0.00 in0.0 mm 0.00 in0.0 mm
07:35 AM 68.0°F20.0°C 48.1°F8.9°C 49% Calm Calm 20.0 mph32.2 kmh 210.15 in7116.5 mb 0.00 in0.0 mm 0.00 in0.0 mm 0.00 in0.0 mm
07:40 AM 68.0°F20.0°C 48.1°F8.9°C 49% Calm Calm 20.0 mph32.2 kmh 210.16 in7116.8 mb 0.00 in0.0 mm 0.00 in0.0 mm 0.00 in0.0 mm
07:45 AM 68.0°F20.0°C 48.1°F8.9°C 49% 3.0 mph WNW4.8 kmh WNW 20.0 mph32.2 kmh 210.16 in7116.8 mb 0.00 in0.0 mm 0.00 in0.0 mm 0.00 in0.0 mm
07:50 AM 68.0°F20.0°C 48.1°F8.9°C 49% 4.0 mph NW6.4 kmh NW 20.0 mph32.2 kmh 210.15 in7116.5 mb 0.00 in0.0 mm 0.00 in0.0 mm 0.00 in0.0 mm
07:55 AM 68.0°F20.0°C 48.1°F8.9°C 49% 6.0 mph NW9.7 kmh NW 20.0 mph32.2 kmh 210.15 in7116.5 mb 0.00 in0.0 mm 0.00 in0.0 mm 0.00 in0.0 mm
08:00 AM 68.0°F20.0°C 48.1°F8.9°C 49% 8.0 mph NW12.9 kmh NW 20.0 mph32.2 kmh 210.16 in7116.8 mb 0.00 in0.0 mm 0.00 in0.0 mm 0.00 in0.0 mm
08:05 AM 68.0°F20.0°C 47.5°F8.6°C 48% 5.0 mph NW8.0 kmh NW 20.0 mph32.2 kmh 210.16 in7116.8 mb 0.00 in0.0 mm 0.00 in0.0 mm 0.00 in0.0 mm
08:10 AM 68.0°F20.0°C 47.5°F8.6°C 48% 7.0 mph NNW11.3 kmh NNW 20.0 mph32.2 kmh 210.15 in7116.5 mb 0.00 in0.0 mm 0.00 in0.0 mm 0.00 in0.0 mm
08:20 AM 68.0°F20.0°C 47.0°F8.3°C 47% 6.0 mph NW9.7 kmh NW 20.0 mph32.2 kmh 210.14 in7116.2 mb 0.00 in0.0 mm 0.00 in0.0 mm 0.00 in0.0 mm
08:25 AM 68.0°F20.0°C 47.0°F8.3°C 47% 2.0 mph NNW3.2 kmh NNW 20.0 mph32.2 kmh 210.14 in7116.2 mb 0.00 in0.0 mm 0.00 in0.0 mm 0.00 in0.0 mm
08:30 AM 68.0°F20.0°C 47.0°F8.3°C 47% 5.0 mph N8.0 kmh N 20.0 mph32.2 kmh 210.13 in7115.8 mb 0.00 in0.0 mm 0.00 in0.0 mm 0.00 in0.0 mm
08:35 AM 68.0°F20.0°C 47.0°F8.3°C 47% 1.0 mph S1.6 kmh S 20.0 mph32.2 kmh 210.13 in7115.8 mb 0.00 in0.0 mm 0.00 in0.0 mm 0.00 in0.0 mm
08:40 AM 68.0°F20.0°C 47.0°F8.3°C 47% 7.0 mph N11.3 kmh N 20.0 mph32.2 kmh 210.12 in7115.5 mb 0.00 in0.0 mm 0.00 in0.0 mm 0.00 in0.0 mm
08:45 AM 68.0°F20.0°C 47.0°F8.3°C 47% Calm Calm 20.0 mph32.2 kmh 210.12 in7115.5 mb 0.00 in0.0 mm 0.00 in0.0 mm 0.00 in0.0 mm
08:50 AM 68.0°F20.0°C 47.0°F8.3°C 47% 1.0 mph NW1.6 kmh NW 20.0 mph32.2 kmh 210.12 in7115.5 mb 0.00 in0.0 mm 0.00 in0.0 mm 0.00 in0.0 mm
08:55 AM 68.0°F20.0°C 47.0°F8.3°C 47% 3.0 mph NW4.8 kmh NW 20.0 mph32.2 kmh 210.12 in7115.5 mb 0.00 in0.0 mm 0.00 in0.0 mm 0.00 in0.0 mm
09:00 AM 68.0°F20.0°C 47.0°F8.3°C 47% 6.0 mph ENE9.7 kmh ENE 20.0 mph32.2 kmh 210.12 in7115.5 mb 0.00 in0.0 mm 0.00 in0.0 mm 0.00 in0.0 mm
09:05 AM 68.0°F20.0°C 47.0°F8.3°C 47% 2.0 mph ESE3.2 kmh ESE 20.0 mph32.2 kmh 210.12 in7115.5 mb 0.00 in0.0 mm 0.00 in0.0 mm 0.00 in0.0 mm
09:10 AM 68.0°F20.0°C 47.0°F8.3°C 47% 2.0 mph E3.2 kmh E 20.0 mph32.2 kmh 210.13 in7115.8 mb 0.00 in0.0 mm 0.00 in0.0 mm 0.00 in0.0 mm
09:15 AM 68.0°F20.0°C 47.0°F8.3°C 47% 1.0 mph SW1.6 kmh SW 20.0 mph32.2 kmh 210.13 in7115.8 mb 0.00 in0.0 mm 0.00 in0.0 mm 0.00 in0.0 mm
09:20 AM 68.0°F20.0°C 47.0°F8.3°C 47% 6.0 mph E9.7 kmh E 20.0 mph32.2 kmh 210.12 in7115.5 mb 0.00 in0.0 mm 0.00 in0.0 mm 0.00 in0.0 mm
09:25 AM 68.0°F20.0°C 47.5°F8.6°C 48% Calm Calm 20.0 mph32.2 kmh 210.12 in7115.5 mb 0.00 in0.0 mm 0.00 in0.0 mm 0.00 in0.0 mm
09:30 AM 68.0°F20.0°C 47.5°F8.6°C 48% 2.0 mph NE3.2 kmh NE 20.0 mph32.2 kmh 210.12 in7115.5 mb 0.00 in0.0 mm 0.00 in0.0 mm 0.00 in0.0 mm
09:35 AM 68.0°F20.0°C 48.1°F8.9°C 49% 1.0 mph ENE1.6 kmh ENE 20.0 mph32.2 kmh 210.12 in7115.5 mb 0.00 in0.0 mm 0.00 in0.0 mm 0.00 in0.0 mm
09:40 AM 67.0°F19.4°C 47.7°F8.7°C 50% 2.0 mph SSW3.2 kmh SSW 20.0 mph32.2 kmh 210.12 in7115.5 mb 0.00 in0.0 mm 0.00 in0.0 mm 0.00 in0.0 mm
09:45 AM 67.0°F19.4°C 47.2°F8.4°C 49% Calm Calm 20.0 mph32.2 kmh 210.12 in7115.5 mb 0.00 in0.0 mm 0.00 in0.0 mm 0.00 in0.0 mm
09:50 AM 67.0°F19.4°C 47.7°F8.7°C 50% 4.0 mph S6.4 kmh S 20.0 mph32.2 kmh 210.12 in7115.5 mb 0.00 in0.0 mm 0.00 in0.0 mm 0.00 in0.0 mm
09:55 AM 67.0°F19.4°C 47.7°F8.7°C 50% 1.0 mph ENE1.6 kmh ENE 20.0 mph32.2 kmh 210.12 in7115.5 mb 0.00 in0.0 mm 0.00 in0.0 mm 0.00 in0.0 mm
10:00 AM 67.0°F19.4°C 47.7°F8.7°C 50% Calm Calm 20.0 mph32.2 kmh 210.12 in7115.5 mb 0.00 in0.0 mm 0.00 in0.0 mm 0.00 in0.0 mm
10:05 AM 67.0°F19.4°C 47.7°F8.7°C 50% 1.0 mph S1.6 kmh S 20.0 mph32.2 kmh 210.12 in7115.5 mb 0.00 in0.0 mm 0.00 in0.0 mm 0.00 in0.0 mm
10:10 AM 67.0°F19.4°C 47.7°F8.7°C 50% 2.0 mph S3.2 kmh S 20.0 mph32.2 kmh 210.12 in7115.5 mb 0.00 in0.0 mm 0.00 in0.0 mm 0.00 in0.0 mm
10:15 AM 67.0°F19.4°C 47.7°F8.7°C 50% Calm Calm 20.0 mph32.2 kmh 210.12 in7115.5 mb 0.00 in0.0 mm 0.00 in0.0 mm 0.00 in0.0 mm
10:20 AM 67.0°F19.4°C 47.7°F8.7°C 50% 2.0 mph SE3.2 kmh SE 20.0 mph32.2 kmh 210.12 in7115.5 mb 0.00 in0.0 mm 0.00 in0.0 mm 0.00 in0.0 mm
10:25 AM 67.0°F19.4°C 47.7°F8.7°C 50% Calm Calm 20.0 mph32.2 kmh 210.12 in7115.5 mb 0.00 in0.0 mm 0.00 in0.0 mm 0.00 in0.0 mm
10:30 AM 68.0°F20.0°C 48.6°F9.2°C 50% 6.0 mph ESE9.7 kmh ESE 20.0 mph32.2 kmh 210.12 in7115.5 mb 0.00 in0.0 mm 0.00 in0.0 mm 0.00 in0.0 mm
10:35 AM 68.0°F20.0°C 48.6°F9.2°C 50% 1.0 mph W1.6 kmh W 20.0 mph32.2 kmh 210.12 in7115.5 mb 0.00 in0.0 mm 0.00 in0.0 mm 0.00 in0.0 mm
10:40 AM 68.0°F20.0°C 48.6°F9.2°C 50% 5.0 mph ESE8.0 kmh ESE 20.0 mph32.2 kmh 210.11 in7115.1 mb 0.00 in0.0 mm 0.00 in0.0 mm 0.00 in0.0 mm
10:45 AM 69.0°F20.6°C 49.5°F9.7°C 50% 3.0 mph SE4.8 kmh SE 20.0 mph32.2 kmh 210.11 in7115.1 mb 0.00 in0.0 mm 0.00 in0.0 mm 0.00 in0.0 mm
10:50 AM 69.0°F20.6°C 49.0°F9.4°C 49% 2.0 mph SSW3.2 kmh SSW 20.0 mph32.2 kmh 210.10 in7114.8 mb 0.00 in0.0 mm 0.00 in0.0 mm 0.00 in0.0 mm
10:55 AM 70.0°F21.1°C 50.5°F10.3°C 50% 1.0 mph SSW1.6 kmh SSW 20.0 mph32.2 kmh 210.10 in7114.8 mb 0.00 in0.0 mm 0.00 in0.0 mm 0.00 in0.0 mm
11:00 AM 71.0°F21.7°C 51.4°F10.8°C 50% 6.0 mph SE9.7 kmh SE 20.0 mph32.2 kmh 210.09 in7114.5 mb 0.00 in0.0 mm 0.00 in0.0 mm 0.00 in0.0 mm
11:05 AM 71.0°F21.7°C 50.8°F10.4°C 49% 5.0 mph SSW8.0 kmh SSW 20.0 mph32.2 kmh 210.09 in7114.5 mb 0.00 in0.0 mm 0.00 in0.0 mm 0.00 in0.0 mm
11:10 AM 72.0°F22.2°C 51.7°F10.9°C 49% 2.0 mph S3.2 kmh S 20.0 mph32.2 kmh 210.09 in7114.5 mb 0.00 in0.0 mm 0.00 in0.0 mm 0.00 in0.0 mm
11:15 AM 72.0°F22.2°C 51.7°F10.9°C 49% 2.0 mph W3.2 kmh W 20.0 mph32.2 kmh 210.09 in7114.5 mb 0.00 in0.0 mm 0.00 in0.0 mm 0.00 in0.0 mm
11:20 AM 72.0°F22.2°C 51.2°F10.7°C 48% Calm Calm 20.0 mph32.2 kmh 210.09 in7114.5 mb 0.00 in0.0 mm 0.00 in0.0 mm 0.00 in0.0 mm
11:25 AM 72.0°F22.2°C 51.2°F10.7°C 48% Calm Calm 20.0 mph32.2 kmh 210.09 in7114.5 mb 0.00 in0.0 mm 0.00 in0.0 mm 0.00 in0.0 mm
11:30 AM 71.0°F21.7°C 50.3°F10.2°C 48% Calm Calm 20.0 mph32.2 kmh 210.09 in7114.5 mb 0.00 in0.0 mm 0.00 in0.0 mm 0.00 in0.0 mm
11:35 AM 71.0°F21.7°C 50.3°F10.2°C 48% 1.0 mph S1.6 kmh S 20.0 mph32.2 kmh 210.09 in7114.5 mb 0.00 in0.0 mm 0.00 in0.0 mm 0.00 in0.0 mm
11:40 AM 71.0°F21.7°C 49.7°F9.8°C 47% 2.0 mph W3.2 kmh W 20.0 mph32.2 kmh 210.08 in7114.1 mb 0.00 in0.0 mm 0.00 in0.0 mm 0.00 in0.0 mm
11:45 AM 71.0°F21.7°C 49.7°F9.8°C 47% 2.0 mph ESE3.2 kmh ESE 20.0 mph32.2 kmh 210.08 in7114.1 mb 0.00 in0.0 mm 0.00 in0.0 mm 0.00 in0.0 mm
11:50 AM 71.0°F21.7°C 50.3°F10.2°C 48% Calm Calm 20.0 mph32.2 kmh 210.07 in7113.8 mb 0.00 in0.0 mm 0.00 in0.0 mm 0.00 in0.0 mm
11:55 AM 71.0°F21.7°C 50.3°F10.2°C 48% 7.0 mph SE11.3 kmh SE 20.0 mph32.2 kmh 210.07 in7113.8 mb 0.00 in0.0 mm 0.00 in0.0 mm 0.00 in0.0 mm
12:00 PM 70.0°F21.1°C 49.4°F9.7°C 48% 1.0 mph NW1.6 kmh NW 20.0 mph32.2 kmh 210.08 in7114.1 mb 0.01 in0.3 mm 0.01 in0.3 mm 0.01 in0.3 mm
12:05 PM 70.0°F21.1°C 49.9°F9.9°C 49% Calm Calm 20.0 mph32.2 kmh 210.08 in7114.1 mb 0.02 in0.5 mm 0.12 in3.0 mm 0.02 in0.5 mm
12:10 PM 70.0°F21.1°C 49.9°F9.9°C 49% 1.0 mph ESE1.6 kmh ESE 20.0 mph32.2 kmh 210.07 in7113.8 mb 0.02 in0.5 mm 0.00 in0.0 mm 0.02 in0.5 mm
12:15 PM 69.0°F20.6°C 49.0°F9.4°C 49% Calm Calm 20.0 mph32.2 kmh 210.07 in7113.8 mb 0.02 in0.5 mm 0.00 in0.0 mm 0.02 in0.5 mm
12:20 PM 68.0°F20.0°C 48.6°F9.2°C 50% 6.0 mph ESE9.7 kmh ESE 20.0 mph32.2 kmh 210.06 in7113.5 mb 0.02 in0.5 mm 0.00 in0.0 mm 0.02 in0.5 mm
12:25 PM 68.0°F20.0°C 48.6°F9.2°C 50% Calm Calm 20.0 mph32.2 kmh 210.06 in7113.5 mb 0.02 in0.5 mm 0.00 in0.0 mm 0.02 in0.5 mm
12:30 PM 68.0°F20.0°C 48.6°F9.2°C 50% Calm Calm 20.0 mph32.2 kmh 210.06 in7113.5 mb 0.10 in2.5 mm 0.96 in24.4 mm 0.10 in2.5 mm
12:35 PM 67.0°F19.4°C 47.7°F8.7°C 50% 2.0 mph SE3.2 kmh SE 20.0 mph32.2 kmh 210.06 in7113.5 mb 0.11 in2.8 mm 0.12 in3.0 mm 0.11 in2.8 mm
12:40 PM 67.0°F19.4°C 47.7°F8.7°C 50% 2.0 mph S3.2 kmh S 20.0 mph32.2 kmh 210.08 in7114.1 mb 0.16 in4.1 mm 0.60 in15.2 mm 0.16 in4.1 mm
12:45 PM 67.0°F19.4°C 47.7°F8.7°C 50% 7.0 mph SW11.3 kmh SW 20.0 mph32.2 kmh 210.08 in7114.1 mb 0.23 in5.8 mm 0.84 in21.3 mm 0.23 in5.8 mm
12:50 PM 66.0°F18.9°C 46.8°F8.2°C 50% 3.0 mph SSW4.8 kmh SSW 20.0 mph32.2 kmh 210.08 in7114.1 mb 0.29 in7.4 mm 0.72 in18.3 mm 0.29 in7.4 mm
12:55 PM 66.0°F18.9°C 47.3°F8.5°C 51% 3.0 mph SW4.8 kmh SW 20.0 mph32.2 kmh 210.08 in7114.1 mb 0.29 in7.4 mm 0.00 in0.0 mm 0.29 in7.4 mm
01:00 PM 66.0°F18.9°C 47.3°F8.5°C 51% 3.0 mph S4.8 kmh S 20.0 mph32.2 kmh 210.08 in7114.1 mb 0.30 in7.6 mm 0.01 in0.3 mm 0.30 in7.6 mm
01:05 PM 66.0°F18.9°C 46.2°F7.9°C 49% Calm Calm 20.0 mph32.2 kmh 210.08 in7114.1 mb 0.30 in7.6 mm 0.00 in0.0 mm 0.30 in7.6 mm
01:10 PM 66.0°F18.9°C 46.2°F7.9°C 49% 2.0 mph SE3.2 kmh SE 20.0 mph32.2 kmh 210.08 in7114.1 mb 0.33 in8.4 mm 0.36 in9.1 mm 0.33 in8.4 mm
01:15 PM 66.0°F18.9°C 46.2°F7.9°C 49% Calm Calm 20.0 mph32.2 kmh 210.08 in7114.1 mb 0.34 in8.6 mm 0.12 in3.0 mm 0.34 in8.6 mm
01:20 PM 67.0°F19.4°C 47.2°F8.4°C 49% 2.0 mph S3.2 kmh S 20.0 mph32.2 kmh 210.06 in7113.5 mb 0.35 in8.9 mm 0.12 in3.0 mm 0.35 in8.9 mm
01:25 PM 67.0°F19.4°C 47.2°F8.4°C 49% 4.0 mph S6.4 kmh S 20.0 mph32.2 kmh 210.06 in7113.5 mb 0.35 in8.9 mm 0.00 in0.0 mm 0.35 in8.9 mm
01:30 PM 66.0°F18.9°C 45.7°F7.6°C 48% 3.0 mph N4.8 kmh N 20.0 mph32.2 kmh 210.08 in7114.1 mb 0.36 in9.1 mm 0.12 in3.0 mm 0.36 in9.1 mm
01:35 PM 63.0°F17.2°C 43.0°F6.1°C 48% 7.0 mph SW11.3 kmh SW 25.0 mph40.2 kmh 210.08 in7114.1 mb 0.47 in11.9 mm 1.32 in33.5 mm 0.47 in11.9 mm
01:40 PM 63.0°F17.2°C 43.0°F6.1°C 48% 6.0 mph SW9.7 kmh SW 25.0 mph40.2 kmh 210.09 in7114.5 mb 0.48 in12.2 mm 0.12 in3.0 mm 0.48 in12.2 mm
01:45 PM 63.0°F17.2°C 43.0°F6.1°C 48% 3.0 mph WNW4.8 kmh WNW 25.0 mph40.2 kmh 210.09 in7114.5 mb 0.51 in13.0 mm 0.36 in9.1 mm 0.51 in13.0 mm
01:50 PM 63.0°F17.2°C 43.0°F6.1°C 48% 5.0 mph SW8.0 kmh SW 25.0 mph40.2 kmh 210.08 in7114.1 mb 0.57 in14.5 mm 0.72 in18.3 mm 0.57 in14.5 mm
01:55 PM 63.0°F17.2°C 43.0°F6.1°C 48% 2.0 mph NW3.2 kmh NW 25.0 mph40.2 kmh 210.08 in7114.1 mb 0.58 in14.7 mm 0.12 in3.0 mm 0.58 in14.7 mm
02:00 PM 63.0°F17.2°C 43.0°F6.1°C 48% 4.0 mph SW6.4 kmh SW 25.0 mph40.2 kmh 210.08 in7114.1 mb 0.69 in17.5 mm 0.12 in3.0 mm 0.69 in17.5 mm
02:05 PM 62.0°F16.7°C 42.0°F5.6°C 48% 6.0 mph SW9.7 kmh SW 25.0 mph40.2 kmh 210.08 in7114.1 mb 0.88 in22.4 mm 2.28 in57.9 mm 0.88 in22.4 mm
02:10 PM 62.0°F16.7°C 42.0°F5.6°C 48% 1.0 mph NW1.6 kmh NW 25.0 mph40.2 kmh 210.09 in7114.5 mb 1.02 in25.9 mm 1.68 in42.7 mm 1.02 in25.9 mm
02:15 PM 62.0°F16.7°C 42.0°F5.6°C 48% Calm Calm 25.0 mph40.2 kmh 210.09 in7114.5 mb 1.10 in27.9 mm 0.96 in24.4 mm 1.10 in27.9 mm
02:20 PM 62.0°F16.7°C 42.0°F5.6°C 48% 1.0 mph SW1.6 kmh SW 25.0 mph40.2 kmh 210.09 in7114.5 mb 1.14 in29.0 mm 0.48 in12.2 mm 1.14 in29.0 mm
02:25 PM 62.0°F16.7°C 42.0°F5.6°C 48% 7.0 mph SSW11.3 kmh SSW 25.0 mph40.2 kmh 210.09 in7114.5 mb 1.15 in29.2 mm 0.12 in3.0 mm 1.15 in29.2 mm
02:30 PM 62.0°F16.7°C 42.0°F5.6°C 48% 3.0 mph N4.8 kmh N 25.0 mph40.2 kmh 210.10 in7114.8 mb 1.28 in32.5 mm 1.56 in39.6 mm 1.28 in32.5 mm
02:35 PM 62.0°F16.7°C 42.0°F5.6°C 48% 3.0 mph WSW4.8 kmh WSW 25.0 mph40.2 kmh 210.10 in7114.8 mb 1.30 in33.0 mm 0.24 in6.1 mm 1.30 in33.0 mm
02:40 PM 62.0°F16.7°C 41.5°F5.3°C 47% 6.0 mph WNW9.7 kmh WNW 25.0 mph40.2 kmh 210.10 in7114.8 mb 1.31 in33.3 mm 0.12 in3.0 mm 1.31 in33.3 mm
02:45 PM 62.0°F16.7°C 41.5°F5.3°C 47% Calm Calm 25.0 mph40.2 kmh 210.10 in7114.8 mb 1.32 in33.5 mm 0.12 in3.0 mm 1.32 in33.5 mm
02:50 PM 62.0°F16.7°C 41.5°F5.3°C 47% 6.0 mph SSW9.7 kmh SSW 25.0 mph40.2 kmh 210.10 in7114.8 mb 1.32 in33.5 mm 0.00 in0.0 mm 1.32 in33.5 mm
02:55 PM 62.0°F16.7°C 41.5°F5.3°C 47% 2.0 mph NW3.2 kmh NW 25.0 mph40.2 kmh 210.10 in7114.8 mb 1.32 in33.5 mm 0.00 in0.0 mm 1.32 in33.5 mm
03:00 PM 63.0°F17.2°C 42.4°F5.8°C 47% Calm Calm 25.0 mph40.2 kmh 210.08 in7114.1 mb 1.33 in33.8 mm 0.01 in0.3 mm 1.33 in33.8 mm
03:05 PM 63.0°F17.2°C 42.4°F5.8°C 47% 3.0 mph W4.8 kmh W 25.0 mph40.2 kmh 210.08 in7114.1 mb 1.33 in33.8 mm 0.00 in0.0 mm 1.33 in33.8 mm
03:10 PM 63.0°F17.2°C 42.4°F5.8°C 47% 1.0 mph W1.6 kmh W 25.0 mph40.2 kmh 210.08 in7114.1 mb 1.35 in34.3 mm 0.24 in6.1 mm 1.35 in34.3 mm
03:15 PM 63.0°F17.2°C 42.4°F5.8°C 47% 6.0 mph NW9.7 kmh NW 25.0 mph40.2 kmh 210.08 in7114.1 mb 1.36 in34.5 mm 0.12 in3.0 mm 1.36 in34.5 mm
03:20 PM 63.0°F17.2°C 42.4°F5.8°C 47% 3.0 mph SSW4.8 kmh SSW 25.0 mph40.2 kmh 210.05 in7113.1 mb 1.37 in34.8 mm 0.12 in3.0 mm 1.37 in34.8 mm
03:25 PM 63.0°F17.2°C 42.4°F5.8°C 47% 7.0 mph W11.3 kmh W 25.0 mph40.2 kmh 210.05 in7113.1 mb 1.38 in35.1 mm 0.12 in3.0 mm 1.38 in35.1 mm
03:30 PM 63.0°F17.2°C 41.8°F5.4°C 46% 1.0 mph NW1.6 kmh NW 25.0 mph40.2 kmh 210.10 in7114.8 mb 1.39 in35.3 mm 0.12 in3.0 mm 1.39 in35.3 mm
03:35 PM 63.0°F17.2°C 42.4°F5.8°C 47% 1.0 mph W1.6 kmh W 25.0 mph40.2 kmh 210.10 in7114.8 mb 1.43 in36.3 mm 0.48 in12.2 mm 1.43 in36.3 mm
03:40 PM 63.0°F17.2°C 41.8°F5.4°C 46% 5.0 mph NW8.0 kmh NW 25.0 mph40.2 kmh 210.08 in7114.1 mb 1.48 in37.6 mm 0.60 in15.2 mm 1.48 in37.6 mm
03:45 PM 62.0°F16.7°C 40.9°F4.9°C 46% 9.0 mph W14.5 kmh W 25.0 mph40.2 kmh 210.08 in7114.1 mb 1.49 in37.8 mm 0.12 in3.0 mm 1.49 in37.8 mm
03:50 PM 62.0°F16.7°C 40.9°F4.9°C 46% 12.0 mph NW19.3 kmh NW 25.0 mph40.2 kmh 210.06 in7113.5 mb 1.51 in38.4 mm 0.24 in6.1 mm 1.51 in38.4 mm
03:55 PM 62.0°F16.7°C 40.9°F4.9°C 46% 6.0 mph NW9.7 kmh NW 25.0 mph40.2 kmh 210.06 in7113.5 mb 1.52 in38.6 mm 0.12 in3.0 mm 1.52 in38.6 mm
04:00 PM 62.0°F16.7°C 40.9°F4.9°C 46% 6.0 mph NW9.7 kmh NW 25.0 mph40.2 kmh 210.06 in7113.5 mb 1.52 in38.6 mm 0.00 in0.0 mm 1.52 in38.6 mm
04:05 PM 62.0°F16.7°C 40.9°F4.9°C 46% 2.0 mph WNW3.2 kmh WNW 25.0 mph40.2 kmh 210.06 in7113.5 mb 1.52 in38.6 mm 0.00 in0.0 mm 1.52 in38.6 mm
04:10 PM 62.0°F16.7°C 40.9°F4.9°C 46% 3.0 mph WNW4.8 kmh WNW 25.0 mph40.2 kmh 210.07 in7113.8 mb 1.53 in38.9 mm 0.12 in3.0 mm 1.53 in38.9 mm
04:15 PM 63.0°F17.2°C 41.8°F5.4°C 46% 3.0 mph N4.8 kmh N 25.0 mph40.2 kmh 210.07 in7113.8 mb 1.53 in38.9 mm 0.00 in0.0 mm 1.53 in38.9 mm
04:20 PM 63.0°F17.2°C 41.8°F5.4°C 46% 5.0 mph N8.0 kmh N 25.0 mph40.2 kmh 210.06 in7113.5 mb 1.53 in38.9 mm 0.00 in0.0 mm 1.53 in38.9 mm
04:25 PM 64.0°F17.8°C 42.8°F6.0°C 46% Calm Calm 25.0 mph40.2 kmh 210.06 in7113.5 mb 1.53 in38.9 mm 0.00 in0.0 mm 1.53 in38.9 mm
04:30 PM 64.0°F17.8°C 42.8°F6.0°C 46% 6.0 mph N9.7 kmh N 25.0 mph40.2 kmh 210.06 in7113.5 mb 1.53 in38.9 mm 0.00 in0.0 mm 1.53 in38.9 mm
04:35 PM 64.0°F17.8°C 42.8°F6.0°C 46% Calm Calm 25.0 mph40.2 kmh 210.06 in7113.5 mb 1.53 in38.9 mm 0.00 in0.0 mm 1.53 in38.9 mm
04:40 PM 65.0°F18.3°C 43.7°F6.5°C 46% 3.0 mph NNE4.8 kmh NNE 25.0 mph40.2 kmh 210.06 in7113.5 mb 1.53 in38.9 mm 0.00 in0.0 mm 1.53 in38.9 mm
04:45 PM 65.0°F18.3°C 43.7°F6.5°C 46% Calm Calm 25.0 mph40.2 kmh 210.06 in7113.5 mb 1.53 in38.9 mm 0.00 in0.0 mm 1.53 in38.9 mm
04:50 PM 65.0°F18.3°C 43.7°F6.5°C 46% Calm Calm 25.0 mph40.2 kmh 210.06 in7113.5 mb 1.53 in38.9 mm 0.00 in0.0 mm 1.53 in38.9 mm
04:55 PM 65.0°F18.3°C 43.7°F6.5°C 46% 3.0 mph NE4.8 kmh NE 25.0 mph40.2 kmh 210.06 in7113.5 mb 1.53 in38.9 mm 0.00 in0.0 mm 1.53 in38.9 mm
05:00 PM 65.0°F18.3°C 44.2°F6.8°C 47% Calm Calm 25.0 mph40.2 kmh 210.05 in7113.1 mb 1.53 in38.9 mm 0.00 in0.0 mm 1.53 in38.9 mm
05:05 PM 65.0°F18.3°C 44.2°F6.8°C 47% Calm Calm 25.0 mph40.2 kmh 210.05 in7113.1 mb 1.53 in38.9 mm 0.00 in0.0 mm 1.53 in38.9 mm
05:10 PM 65.0°F18.3°C 44.2°F6.8°C 47% Calm Calm 25.0 mph40.2 kmh 210.03 in7112.4 mb 1.53 in38.9 mm 0.00 in0.0 mm 1.53 in38.9 mm
05:15 PM 65.0°F18.3°C 44.2°F6.8°C 47% Calm Calm 25.0 mph40.2 kmh 210.03 in7112.4 mb 1.53 in38.9 mm 0.00 in0.0 mm 1.53 in38.9 mm
05:25 PM 65.0°F18.3°C 44.2°F6.8°C 47% 4.0 mph SE6.4 kmh SE 25.0 mph40.2 kmh 210.00 in7111.4 mb 1.53 in38.9 mm 0.00 in0.0 mm 1.53 in38.9 mm
05:30 PM 64.0°F17.8°C 43.3°F6.3°C 47% 1.0 mph NE1.6 kmh NE 25.0 mph40.2 kmh 209.99 in7111.1 mb 1.53 in38.9 mm 0.00 in0.0 mm 1.53 in38.9 mm
05:35 PM 64.0°F17.8°C 43.3°F6.3°C 47% 3.0 mph NE4.8 kmh NE 25.0 mph40.2 kmh 209.99 in7111.1 mb 1.53 in38.9 mm 0.00 in0.0 mm 1.53 in38.9 mm
05:40 PM 65.0°F18.3°C 44.2°F6.8°C 47% Calm Calm 25.0 mph40.2 kmh 210.00 in7111.4 mb 1.53 in38.9 mm 0.00 in0.0 mm 1.53 in38.9 mm
05:45 PM 65.0°F18.3°C 44.2°F6.8°C 47% Calm Calm 25.0 mph40.2 kmh 210.00 in7111.4 mb 1.53 in38.9 mm 0.00 in0.0 mm 1.53 in38.9 mm
05:50 PM 65.0°F18.3°C 44.2°F6.8°C 47% 1.0 mph ESE1.6 kmh ESE 25.0 mph40.2 kmh 210.00 in7111.4 mb 1.53 in38.9 mm 0.00 in0.0 mm 1.53 in38.9 mm
05:55 PM 65.0°F18.3°C 44.2°F6.8°C 47% 1.0 mph ENE1.6 kmh ENE 25.0 mph40.2 kmh 210.00 in7111.4 mb 1.53 in38.9 mm 0.00 in0.0 mm 1.53 in38.9 mm
06:00 PM 65.0°F18.3°C 44.2°F6.8°C 47% 1.0 mph S1.6 kmh S 25.0 mph40.2 kmh 210.03 in7112.4 mb 1.53 in38.9 mm 0.00 in0.0 mm 1.53 in38.9 mm
06:05 PM 65.0°F18.3°C 44.2°F6.8°C 47% Calm Calm 25.0 mph40.2 kmh 210.03 in7112.4 mb 1.53 in38.9 mm 0.00 in0.0 mm 1.53 in38.9 mm
06:10 PM 65.0°F18.3°C 44.8°F7.1°C 48% 2.0 mph W3.2 kmh W 25.0 mph40.2 kmh 210.04 in7112.8 mb 1.53 in38.9 mm 0.00 in0.0 mm 1.53 in38.9 mm
06:15 PM 65.0°F18.3°C 44.2°F6.8°C 47% 2.0 mph SSW3.2 kmh SSW 25.0 mph40.2 kmh 210.04 in7112.8 mb 1.53 in38.9 mm 0.00 in0.0 mm 1.53 in38.9 mm
06:20 PM 66.0°F18.9°C 45.7°F7.6°C 48% Calm Calm 25.0 mph40.2 kmh 210.05 in7113.1 mb 1.53 in38.9 mm 0.00 in0.0 mm 1.53 in38.9 mm
06:25 PM 65.0°F18.3°C 44.8°F7.1°C 48% 2.0 mph SSW3.2 kmh SSW 25.0 mph40.2 kmh 210.05 in7113.1 mb 1.53 in38.9 mm 0.00 in0.0 mm 1.53 in38.9 mm
06:30 PM 66.0°F18.9°C 45.7°F7.6°C 48% 1.0 mph SSW1.6 kmh SSW 25.0 mph40.2 kmh 210.04 in7112.8 mb 1.53 in38.9 mm 0.00 in0.0 mm 1.53 in38.9 mm
06:35 PM 65.0°F18.3°C 44.8°F7.1°C 48% 6.0 mph SW9.7 kmh SW 25.0 mph40.2 kmh 210.04 in7112.8 mb 1.53 in38.9 mm 0.00 in0.0 mm 1.53 in38.9 mm
06:40 PM 66.0°F18.9°C 45.7°F7.6°C 48% Calm Calm 25.0 mph40.2 kmh 210.04 in7112.8 mb 1.53 in38.9 mm 0.00 in0.0 mm 1.53 in38.9 mm
06:45 PM 65.0°F18.3°C 44.8°F7.1°C 48% 2.0 mph SSW3.2 kmh SSW 25.0 mph40.2 kmh 210.04 in7112.8 mb 1.53 in38.9 mm 0.00 in0.0 mm 1.53 in38.9 mm
06:50 PM 65.0°F18.3°C 44.8°F7.1°C 48% 1.0 mph SE1.6 kmh SE 25.0 mph40.2 kmh 210.05 in7113.1 mb 1.53 in38.9 mm 0.00 in0.0 mm 1.53 in38.9 mm
06:55 PM 65.0°F18.3°C 44.8°F7.1°C 48% Calm Calm 25.0 mph40.2 kmh 210.05 in7113.1 mb 1.53 in38.9 mm 0.00 in0.0 mm 1.53 in38.9 mm
07:00 PM 64.0°F17.8°C 43.9°F6.6°C 48% 10.0 mph SW16.1 kmh SW 25.0 mph40.2 kmh 210.05 in7113.1 mb 1.53 in38.9 mm 0.00 in0.0 mm 1.53 in38.9 mm
07:05 PM 64.0°F17.8°C 43.9°F6.6°C 48% 5.0 mph WNW8.0 kmh WNW 25.0 mph40.2 kmh 210.05 in7113.1 mb 1.53 in38.9 mm 0.00 in0.0 mm 1.53 in38.9 mm
07:10 PM 64.0°F17.8°C 43.9°F6.6°C 48% 5.0 mph SW8.0 kmh SW 25.0 mph40.2 kmh 210.06 in7113.5 mb 1.53 in38.9 mm 0.00 in0.0 mm 1.53 in38.9 mm
07:15 PM 64.0°F17.8°C 43.9°F6.6°C 48% 2.0 mph S3.2 kmh S 25.0 mph40.2 kmh 210.06 in7113.5 mb 1.53 in38.9 mm 0.00 in0.0 mm 1.53 in38.9 mm
07:20 PM 64.0°F17.8°C 43.9°F6.6°C 48% 7.0 mph S11.3 kmh S 25.0 mph40.2 kmh 210.06 in7113.5 mb 1.53 in38.9 mm 0.00 in0.0 mm 1.53 in38.9 mm
07:25 PM 64.0°F17.8°C 43.9°F6.6°C 48% Calm Calm 25.0 mph40.2 kmh 210.06 in7113.5 mb 1.53 in38.9 mm 0.00 in0.0 mm 1.53 in38.9 mm
07:30 PM 64.0°F17.8°C 43.9°F6.6°C 48% Calm Calm 25.0 mph40.2 kmh 210.06 in7113.5 mb 1.53 in38.9 mm 0.00 in0.0 mm 1.53 in38.9 mm
07:35 PM 64.0°F17.8°C 43.9°F6.6°C 48% 3.0 mph N4.8 kmh N 25.0 mph40.2 kmh 210.06 in7113.5 mb 1.53 in38.9 mm 0.00 in0.0 mm 1.53 in38.9 mm
07:40 PM 64.0°F17.8°C 43.9°F6.6°C 48% 1.0 mph NW1.6 kmh NW 25.0 mph40.2 kmh 210.06 in7113.5 mb 1.53 in38.9 mm 0.00 in0.0 mm 1.53 in38.9 mm
07:45 PM 64.0°F17.8°C 43.9°F6.6°C 48% 3.0 mph W4.8 kmh W 25.0 mph40.2 kmh 210.06 in7113.5 mb 1.53 in38.9 mm 0.00 in0.0 mm 1.53 in38.9 mm
07:50 PM 64.0°F17.8°C 43.9°F6.6°C 48% 3.0 mph S4.8 kmh S 25.0 mph40.2 kmh 210.05 in7113.1 mb 1.53 in38.9 mm 0.00 in0.0 mm 1.53 in38.9 mm
07:55 PM 64.0°F17.8°C 43.9°F6.6°C 48% 2.0 mph S3.2 kmh S 25.0 mph40.2 kmh 210.05 in7113.1 mb 1.53 in38.9 mm 0.00 in0.0 mm 1.53 in38.9 mm
08:00 PM 64.0°F17.8°C 43.9°F6.6°C 48% 2.0 mph S3.2 kmh S 25.0 mph40.2 kmh 210.04 in7112.8 mb 1.53 in38.9 mm 0.00 in0.0 mm 1.53 in38.9 mm
08:05 PM 64.0°F17.8°C 43.9°F6.6°C 48% 2.0 mph S3.2 kmh S 25.0 mph40.2 kmh 210.04 in7112.8 mb 1.53 in38.9 mm 0.00 in0.0 mm 1.53 in38.9 mm
08:10 PM 64.0°F17.8°C 43.9°F6.6°C 48% 3.0 mph SSW4.8 kmh SSW 25.0 mph40.2 kmh 210.04 in7112.8 mb 1.53 in38.9 mm 0.00 in0.0 mm 1.53 in38.9 mm
08:15 PM 63.0°F17.2°C 43.0°F6.1°C 48% Calm Calm 25.0 mph40.2 kmh 210.04 in7112.8 mb 1.53 in38.9 mm 0.00 in0.0 mm 1.53 in38.9 mm
08:20 PM 63.0°F17.2°C 43.0°F6.1°C 48% Calm Calm 25.0 mph40.2 kmh 210.03 in7112.4 mb 1.53 in38.9 mm 0.00 in0.0 mm 1.53 in38.9 mm
08:25 PM 63.0°F17.2°C 42.4°F5.8°C 47% Calm Calm 25.0 mph40.2 kmh 210.03 in7112.4 mb 1.53 in38.9 mm 0.00 in0.0 mm 1.53 in38.9 mm
08:30 PM 63.0°F17.2°C 42.4°F5.8°C 47% Calm Calm 25.0 mph40.2 kmh 210.02 in7112.1 mb 1.53 in38.9 mm 0.00 in0.0 mm 1.53 in38.9 mm
08:35 PM 63.0°F17.2°C 42.4°F5.8°C 47% Calm Calm 25.0 mph40.2 kmh 210.02 in7112.1 mb 1.53 in38.9 mm 0.00 in0.0 mm 1.53 in38.9 mm
08:40 PM 62.0°F16.7°C 41.5°F5.3°C 47% Calm Calm 25.0 mph40.2 kmh 210.02 in7112.1 mb 1.53 in38.9 mm 0.00 in0.0 mm 1.53 in38.9 mm
08:45 PM 62.0°F16.7°C 41.5°F5.3°C 47% Calm Calm 25.0 mph40.2 kmh 210.02 in7112.1 mb 1.53 in38.9 mm 0.00 in0.0 mm 1.53 in38.9 mm
08:50 PM 63.0°F17.2°C 43.0°F6.1°C 48% 1.0 mph S1.6 kmh S 25.0 mph40.2 kmh 210.02 in7112.1 mb 1.53 in38.9 mm 0.00 in0.0 mm 1.53 in38.9 mm
08:55 PM 62.0°F16.7°C 41.5°F5.3°C 47% Calm Calm 25.0 mph40.2 kmh 210.02 in7112.1 mb 1.53 in38.9 mm 0.00 in0.0 mm 1.53 in38.9 mm
09:00 PM 62.0°F16.7°C 42.0°F5.6°C 48% 1.0 mph SSE1.6 kmh SSE 25.0 mph40.2 kmh 210.02 in7112.1 mb 1.53 in38.9 mm 0.00 in0.0 mm 1.53 in38.9 mm
09:05 PM 62.0°F16.7°C 41.5°F5.3°C 47% 1.0 mph SSE1.6 kmh SSE 25.0 mph40.2 kmh 210.02 in7112.1 mb 1.53 in38.9 mm 0.00 in0.0 mm 1.53 in38.9 mm
09:10 PM 62.0°F16.7°C 42.0°F5.6°C 48% Calm Calm 25.0 mph40.2 kmh 210.02 in7112.1 mb 1.53 in38.9 mm 0.00 in0.0 mm 1.53 in38.9 mm
09:15 PM 62.0°F16.7°C 41.5°F5.3°C 47% 2.0 mph SSE3.2 kmh SSE 25.0 mph40.2 kmh 210.02 in7112.1 mb 1.53 in38.9 mm 0.00 in0.0 mm 1.53 in38.9 mm
09:20 PM 62.0°F16.7°C 42.0°F5.6°C 48% 2.0 mph SSE3.2 kmh SSE 25.0 mph40.2 kmh 210.02 in7112.1 mb 1.53 in38.9 mm 0.00 in0.0 mm 1.53 in38.9 mm
09:25 PM 62.0°F16.7°C 41.5°F5.3°C 47% 2.0 mph SE3.2 kmh SE 25.0 mph40.2 kmh 210.02 in7112.1 mb 1.53 in38.9 mm 0.00 in0.0 mm 1.53 in38.9 mm
09:30 PM 62.0°F16.7°C 42.0°F5.6°C 48% 3.0 mph SSE4.8 kmh SSE 25.0 mph40.2 kmh 210.02 in7112.1 mb 1.53 in38.9 mm 0.00 in0.0 mm 1.53 in38.9 mm
09:35 PM 62.0°F16.7°C 41.5°F5.3°C 47% 3.0 mph S4.8 kmh S 25.0 mph40.2 kmh 210.02 in7112.1 mb 1.53 in38.9 mm 0.00 in0.0 mm 1.53 in38.9 mm
09:40 PM 62.0°F16.7°C 42.0°F5.6°C 48% 4.0 mph SSE6.4 kmh SSE 25.0 mph40.2 kmh 210.02 in7112.1 mb 1.53 in38.9 mm 0.00 in0.0 mm 1.53 in38.9 mm
09:45 PM 61.0°F16.1°C 40.6°F4.8°C 47% 2.0 mph SE3.2 kmh SE 25.0 mph40.2 kmh 210.02 in7112.1 mb 1.53 in38.9 mm 0.00 in0.0 mm 1.53 in38.9 mm
09:50 PM 61.0°F16.1°C 41.1°F5.1°C 48% 4.0 mph SSE6.4 kmh SSE 25.0 mph40.2 kmh 210.04 in7112.8 mb 1.53 in38.9 mm 0.00 in0.0 mm 1.53 in38.9 mm
09:55 PM 61.0°F16.1°C 40.0°F4.4°C 46% 6.0 mph S9.7 kmh S 25.0 mph40.2 kmh 210.04 in7112.8 mb 1.53 in38.9 mm 0.00 in0.0 mm 1.53 in38.9 mm
10:00 PM 61.0°F16.1°C 41.1°F5.1°C 48% 3.0 mph SSW4.8 kmh SSW 25.0 mph40.2 kmh 210.06 in7113.5 mb 1.53 in38.9 mm 0.00 in0.0 mm 1.53 in38.9 mm
10:05 PM 61.0°F16.1°C 40.0°F4.4°C 46% 3.0 mph SSW4.8 kmh SSW 25.0 mph40.2 kmh 210.06 in7113.5 mb 1.53 in38.9 mm 0.00 in0.0 mm 1.53 in38.9 mm
10:10 PM 61.0°F16.1°C 41.1°F5.1°C 48% 4.0 mph S6.4 kmh S 25.0 mph40.2 kmh 210.06 in7113.5 mb 1.53 in38.9 mm 0.00 in0.0 mm 1.53 in38.9 mm
10:15 PM 61.0°F16.1°C 40.0°F4.4°C 46% 4.0 mph S6.4 kmh S 25.0 mph40.2 kmh 210.06 in7113.5 mb 1.53 in38.9 mm 0.00 in0.0 mm 1.53 in38.9 mm
10:20 PM 61.0°F16.1°C 40.6°F4.8°C 47% 3.0 mph S4.8 kmh S 25.0 mph40.2 kmh 210.06 in7113.5 mb 1.53 in38.9 mm 0.00 in0.0 mm 1.53 in38.9 mm
10:25 PM 61.0°F16.1°C 40.0°F4.4°C 46% 4.0 mph SSE6.4 kmh SSE 25.0 mph40.2 kmh 210.06 in7113.5 mb 1.53 in38.9 mm 0.00 in0.0 mm 1.53 in38.9 mm
10:30 PM 61.0°F16.1°C 40.6°F4.8°C 47% 3.0 mph S4.8 kmh S 25.0 mph40.2 kmh 210.06 in7113.5 mb 1.53 in38.9 mm 0.00 in0.0 mm 1.53 in38.9 mm
10:35 PM 61.0°F16.1°C 40.0°F4.4°C 46% 3.0 mph SW4.8 kmh SW 25.0 mph40.2 kmh 210.06 in7113.5 mb 1.53 in38.9 mm 0.00 in0.0 mm 1.53 in38.9 mm
10:40 PM 61.0°F16.1°C 40.6°F4.8°C 47% 3.0 mph SW4.8 kmh SW 25.0 mph40.2 kmh 210.06 in7113.5 mb 1.53 in38.9 mm 0.00 in0.0 mm 1.53 in38.9 mm
10:45 PM 61.0°F16.1°C 40.0°F4.4°C 46% Calm Calm 25.0 mph40.2 kmh 210.06 in7113.5 mb 1.53 in38.9 mm 0.00 in0.0 mm 1.53 in38.9 mm
10:50 PM 61.0°F16.1°C 40.6°F4.8°C 47% Calm Calm 25.0 mph40.2 kmh 210.06 in7113.5 mb 1.53 in38.9 mm 0.00 in0.0 mm 1.53 in38.9 mm
10:55 PM 61.0°F16.1°C 40.0°F4.4°C 46% Calm Calm 25.0 mph40.2 kmh 210.06 in7113.5 mb 1.53 in38.9 mm 0.00 in0.0 mm 1.53 in38.9 mm
11:00 PM 61.0°F16.1°C 40.6°F4.8°C 47% Calm Calm 25.0 mph40.2 kmh 210.05 in7113.1 mb 1.53 in38.9 mm 0.00 in0.0 mm 1.53 in38.9 mm
11:05 PM 61.0°F16.1°C 40.0°F4.4°C 46% Calm Calm 25.0 mph40.2 kmh 210.05 in7113.1 mb 1.53 in38.9 mm 0.00 in0.0 mm 1.53 in38.9 mm
11:10 PM 61.0°F16.1°C 40.6°F4.8°C 47% Calm Calm 25.0 mph40.2 kmh 210.06 in7113.5 mb 1.53 in38.9 mm 0.00 in0.0 mm 1.53 in38.9 mm
11:15 PM 61.0°F16.1°C 40.0°F4.4°C 46% Calm Calm 25.0 mph40.2 kmh 210.06 in7113.5 mb 1.53 in38.9 mm 0.00 in0.0 mm 1.53 in38.9 mm
11:20 PM 61.0°F16.1°C 40.6°F4.8°C 47% Calm Calm 25.0 mph40.2 kmh 210.06 in7113.5 mb 1.53 in38.9 mm 0.00 in0.0 mm 1.53 in38.9 mm
11:25 PM 60.0°F15.6°C 39.1°F3.9°C 46% Calm Calm 25.0 mph40.2 kmh 210.06 in7113.5 mb 1.53 in38.9 mm 0.00 in0.0 mm 1.53 in38.9 mm
11:30 PM 61.0°F16.1°C 40.6°F4.8°C 47% 2.0 mph NW3.2 kmh NW 25.0 mph40.2 kmh 210.06 in7113.5 mb 1.53 in38.9 mm 0.00 in0.0 mm 1.53 in38.9 mm
11:35 PM 60.0°F15.6°C 39.1°F3.9°C 46% 1.0 mph NW1.6 kmh NW 25.0 mph40.2 kmh 210.06 in7113.5 mb 1.53 in38.9 mm 0.00 in0.0 mm 1.53 in38.9 mm
11:40 PM 61.0°F16.1°C 40.6°F4.8°C 47% 1.0 mph NW1.6 kmh NW 25.0 mph40.2 kmh 210.06 in7113.5 mb 1.53 in38.9 mm 0.00 in0.0 mm 1.53 in38.9 mm
11:45 PM 61.0°F16.1°C 40.0°F4.4°C 46% Calm Calm 25.0 mph40.2 kmh 210.06 in7113.5 mb 1.53 in38.9 mm 0.00 in0.0 mm 1.53 in38.9 mm
11:50 PM 61.0°F16.1°C 40.6°F4.8°C 47% Calm Calm 25.0 mph40.2 kmh 210.07 in7113.8 mb 1.53 in38.9 mm 0.00 in0.0 mm 1.53 in38.9 mm
11:55 PM 61.0°F16.1°C 40.0°F4.4°C 46% Calm Calm 25.0 mph40.2 kmh 210.07 in7113.8 mb 1.54 in39.1 mm 0.12 in3.0 mm 1.54 in39.1 mm